Time;durP1;ratioP1;P1;durP2;ratioP2;P2;SDS_P1;SDS_P2;PMS_P1;PMS_P2;Temp;Humidity;BMP_temperature;BMP_pressure;BME280_temperature;BME280_humidity;BME280_pressure;Samples;Min_cycle;Max_cycle;Signal;HPM_P1;HPM_P2
2023/08/27 00:01:47;;;;;;;;;0.67;0.67;;;;;;;;5062989;28;45167;-77
2023/08/27 00:04:13;;;;;;;;;2.00;2.00;;;;;;;;5081321;28;45220;-76
2023/08/27 00:06:38;;;;;;;;;1.00;1.00;;;;;;;;5080998;28;46561;-76
2023/08/27 00:09:03;;;;;;;;;5.67;3.00;;;;;;;;5062823;28;45188;-76
2023/08/27 00:11:28;;;;;;;;;3.67;3.33;;;;;;;;5081292;28;45513;-76
2023/08/27 00:13:55;;;;;;;;;3.33;3.33;;;;;;;;5062875;28;46135;-76
2023/08/27 00:16:20;;;;;;;;;4.33;4.33;;;;;;;;5080888;28;45391;-76
2023/08/27 00:18:45;;;;;;;;;5.00;5.00;;;;;;;;5062727;28;45844;-76
2023/08/27 00:21:10;;;;;;;;;5.00;4.33;;;;;;;;5080706;28;45401;-76
2023/08/27 00:23:38;;;;;;;;;3.00;3.00;;;;;;;;5080699;28;45371;-77
2023/08/27 00:26:03;;;;;;;;;3.00;3.00;;;;;;;;5062280;28;47619;-76
2023/08/27 00:28:28;;;;;;;;;3.00;3.00;;;;;;;;5080876;28;45427;-76
2023/08/27 00:31:00;;;;;;;;;5.00;3.33;;;;;;;;5080860;28;45321;-76
2023/08/27 00:33:25;;;;;;;;;3.00;3.00;;;;;;;;5080745;28;45422;-76
2023/08/27 00:35:53;;;;;;;;;3.67;3.67;;;;;;;;5080574;28;46120;-76
2023/08/27 00:38:18;;;;;;;;;2.00;2.00;;;;;;;;5062392;28;45738;-76
2023/08/27 00:40:43;;;;;;;;;3.33;3.33;;;;;;;;5062634;28;45501;-76
2023/08/27 00:43:09;;;;;;;;;2.00;2.00;;;;;;;;5062212;28;47240;-76
2023/08/27 00:45:34;;;;;;;;;2.00;2.00;;;;;;;;5080248;28;45720;-76
2023/08/27 00:48:00;;;;;;;;;4.33;4.00;;;;;;;;5080453;28;45252;-76
2023/08/27 00:50:25;;;;;;;;;1.67;1.67;;;;;;;;5080719;28;45146;-76
2023/08/27 00:52:50;;;;;;;;;4.00;3.00;;;;;;;;5061343;28;47408;-76
2023/08/27 00:55:16;;;;;;;;;3.00;2.33;;;;;;;;5080003;28;45375;-76
2023/08/27 00:57:41;;;;;;;;;1.00;1.00;;;;;;;;5062020;28;45225;-75
2023/08/27 01:00:10;;;;;;;;;1.33;1.33;;;;;;;;5080586;28;45282;-76
2023/08/27 01:02:37;;;;;;;;;2.00;2.00;;;;;;;;5080178;28;45656;-75
2023/08/27 01:05:03;;;;;;;;;2.00;2.00;;;;;;;;5061798;28;46208;-76
2023/08/27 01:07:40;;;;;;;;;3.33;2.00;;;;;;;;5080084;28;45376;-76
2023/08/27 01:10:24;;;;;;;;;2.67;2.67;;;;;;;;5080207;28;45192;-76
2023/08/27 01:13:07;;;;;;;;;3.00;3.00;;;;;;;;5080008;28;45209;-76
2023/08/27 01:15:32;;;;;;;;;2.00;2.00;;;;;;;;5061698;28;47521;-76
2023/08/27 01:17:58;;;;;;;;;2.00;2.00;;;;;;;;5080094;28;45427;-76
2023/08/27 01:20:24;;;;;;;;;2.00;2.00;;;;;;;;5061964;28;45460;-75
2023/08/27 01:22:49;;;;;;;;;4.00;4.00;;;;;;;;5061734;28;46475;-76
2023/08/27 01:25:17;;;;;;;;;0.00;0.00;;;;;;;;5080038;28;45225;-76
2023/08/27 01:27:47;;;;;;;;;4.00;2.67;;;;;;;;5080018;28;45149;-76
2023/08/27 01:30:20;;;;;;;;;4.00;3.00;;;;;;;;5079932;28;45628;-76
2023/08/27 01:32:48;;;;;;;;;4.33;4.33;;;;;;;;5079917;28;45340;-76
2023/08/27 01:35:14;;;;;;;;;2.00;2.00;;;;;;;;5079835;28;46297;-76
2023/08/27 01:37:39;;;;;;;;;2.00;2.00;;;;;;;;5061684;28;45297;-76
2023/08/27 01:40:08;;;;;;;;;2.67;2.00;;;;;;;;5080017;28;45410;-76
2023/08/27 01:42:35;;;;;;;;;3.00;3.00;;;;;;;;5057980;28;46979;-76
2023/08/27 01:45:00;;;;;;;;;2.00;1.33;;;;;;;;5059495;28;46194;-76
2023/08/27 01:47:26;;;;;;;;;2.33;2.33;;;;;;;;5059176;28;45369;-76
2023/08/27 01:49:51;;;;;;;;;2.67;2.67;;;;;;;;5059550;28;45417;-76
2023/08/27 01:52:17;;;;;;;;;4.00;2.33;;;;;;;;5059407;28;45383;-76
2023/08/27 01:54:42;;;;;;;;;3.00;3.00;;;;;;;;5057856;28;47264;-76
2023/08/27 01:57:07;;;;;;;;;2.33;2.33;;;;;;;;5058157;28;45856;-76
2023/08/27 01:59:32;;;;;;;;;1.33;1.33;;;;;;;;5059583;28;45275;-76
2023/08/27 02:01:58;;;;;;;;;2.67;2.67;;;;;;;;5059153;28;45382;-76
2023/08/27 02:04:23;;;;;;;;;1.00;1.00;;;;;;;;5057960;28;48241;-76
2023/08/27 02:06:48;;;;;;;;;3.33;3.00;;;;;;;;5060450;28;45316;-76
2023/08/27 02:09:15;;;;;;;;;2.00;2.00;;;;;;;;5061722;28;45478;-75
2023/08/27 02:11:40;;;;;;;;;4.00;2.67;;;;;;;;5062775;28;45167;-76
2023/08/27 02:14:06;;;;;;;;;3.00;3.00;;;;;;;;5061335;28;48409;-76
2023/08/27 02:16:32;;;;;;;;;3.00;3.00;;;;;;;;5061080;28;45887;-76
2023/08/27 02:18:57;;;;;;;;;2.00;2.00;;;;;;;;5061362;28;45186;-76
2023/08/27 02:21:22;;;;;;;;;3.00;1.67;;;;;;;;5062433;28;45216;-76
2023/08/27 02:23:48;;;;;;;;;4.00;4.00;;;;;;;;5062629;28;46647;-76
2023/08/27 02:26:13;;;;;;;;;3.00;3.00;;;;;;;;5062485;28;45196;-76
2023/08/27 02:28:38;;;;;;;;;3.00;3.00;;;;;;;;5065674;28;45242;-76
2023/08/27 02:31:03;;;;;;;;;3.00;2.00;;;;;;;;5082677;27;45203;-76
2023/08/27 02:33:28;;;;;;;;;3.00;3.00;;;;;;;;5082806;27;45244;-76
2023/08/27 02:35:54;;;;;;;;;2.00;2.00;;;;;;;;5081412;28;45300;-76
2023/08/27 02:38:19;;;;;;;;;2.00;2.00;;;;;;;;5082947;28;45354;-76
2023/08/27 02:40:44;;;;;;;;;2.67;2.67;;;;;;;;5082746;27;45313;-76
2023/08/27 02:43:09;;;;;;;;;4.67;4.00;;;;;;;;5081005;28;46907;-76
2023/08/27 02:45:35;;;;;;;;;3.33;3.33;;;;;;;;5082238;28;45290;-76
2023/08/27 02:48:00;;;;;;;;;2.67;2.67;;;;;;;;5082709;27;45315;-76
2023/08/27 02:50:25;;;;;;;;;4.00;3.67;;;;;;;;5082529;27;45473;-76
2023/08/27 02:52:50;;;;;;;;;4.00;4.00;;;;;;;;5082407;27;46131;-76
2023/08/27 02:55:15;;;;;;;;;3.67;3.67;;;;;;;;5082118;27;45357;-76
2023/08/27 02:57:41;;;;;;;;;2.00;2.00;;;;;;;;5082624;27;45283;-76
2023/08/27 03:00:06;;;;;;;;;2.00;2.00;;;;;;;;5082398;27;45317;-76
2023/08/27 03:02:31;;;;;;;;;3.00;3.00;;;;;;;;5082039;27;45407;-76
2023/08/27 03:04:58;;;;;;;;;4.00;4.00;;;;;;;;5080925;28;45796;-76
2023/08/27 03:07:23;;;;;;;;;3.00;3.00;;;;;;;;5082228;27;45314;-76
2023/08/27 03:09:48;;;;;;;;;2.67;2.67;;;;;;;;5082184;27;45227;-76
2023/08/27 03:12:14;;;;;;;;;4.00;4.00;;;;;;;;5082206;27;45325;-76
2023/08/27 03:14:39;;;;;;;;;3.67;3.67;;;;;;;;5080736;28;45748;-76
2023/08/27 03:17:04;;;;;;;;;2.00;2.00;;;;;;;;5080099;28;45267;-76
2023/08/27 03:19:29;;;;;;;;;4.00;4.00;;;;;;;;5081996;28;45254;-76
2023/08/27 03:21:55;;;;;;;;;3.00;3.00;;;;;;;;5081838;27;45192;-76
2023/08/27 03:24:20;;;;;;;;;2.67;2.67;;;;;;;;5082060;27;45199;-76
2023/08/27 03:26:45;;;;;;;;;3.67;3.67;;;;;;;;5082137;27;45357;-76
2023/08/27 03:29:10;;;;;;;;;4.00;3.33;;;;;;;;5074327;27;45525;-76
2023/08/27 03:31:35;;;;;;;;;5.00;5.00;;;;;;;;5061107;28;45279;-76
2023/08/27 03:34:00;;;;;;;;;2.00;2.00;;;;;;;;5060299;28;45761;-76
2023/08/27 03:36:26;;;;;;;;;4.00;4.00;;;;;;;;5060164;28;45166;-76
2023/08/27 03:38:51;;;;;;;;;7.00;5.00;;;;;;;;5061377;28;45204;-75
2023/08/27 03:41:16;;;;;;;;;4.00;4.00;;;;;;;;5061788;28;45973;-76
2023/08/27 03:43:42;;;;;;;;;2.67;2.67;;;;;;;;5081659;28;45161;-76
2023/08/27 03:46:07;;;;;;;;;3.00;3.00;;;;;;;;5063217;28;45288;-76
2023/08/27 03:48:32;;;;;;;;;4.33;4.33;;;;;;;;5081625;28;45528;-76
2023/08/27 03:50:57;;;;;;;;;3.33;3.33;;;;;;;;5081409;28;45267;-76
2023/08/27 03:53:22;;;;;;;;;3.00;3.00;;;;;;;;5081631;28;45223;-75
2023/08/27 03:55:47;;;;;;;;;5.00;5.00;;;;;;;;5081364;28;45287;-75
2023/08/27 03:58:13;;;;;;;;;5.00;5.00;;;;;;;;5048204;28;46165;-76
2023/08/27 04:00:38;;;;;;;;;4.67;4.67;;;;;;;;5042709;28;48403;-76
2023/08/27 04:03:04;;;;;;;;;5.33;5.33;;;;;;;;5042964;28;45648;-75
2023/08/27 04:05:30;;;;;;;;;5.00;4.67;;;;;;;;5069896;28;45418;-76
2023/08/27 04:07:55;;;;;;;;;5.00;5.00;;;;;;;;5081127;28;45375;-76
2023/08/27 04:10:20;;;;;;;;;7.00;5.00;;;;;;;;5081099;28;46445;-76
2023/08/27 04:12:45;;;;;;;;;4.33;4.33;;;;;;;;5062768;28;45562;-76
2023/08/27 04:15:11;;;;;;;;;5.67;5.00;;;;;;;;5081164;28;45354;-76
2023/08/27 04:17:36;;;;;;;;;4.00;4.00;;;;;;;;5062821;28;47301;-77
2023/08/27 04:20:01;;;;;;;;;3.00;3.00;;;;;;;;5081043;28;45264;-76
2023/08/27 04:22:26;;;;;;;;;6.00;4.00;;;;;;;;5081057;28;45325;-75
2023/08/27 04:24:51;;;;;;;;;4.00;3.00;;;;;;;;5081138;28;45547;-76
2023/08/27 04:27:17;;;;;;;;;4.00;2.67;;;;;;;;5080175;28;45475;-76
2023/08/27 04:29:43;;;;;;;;;4.67;4.67;;;;;;;;5091545;27;45622;-76
2023/08/27 04:32:08;;;;;;;;;4.67;4.67;;;;;;;;5101197;27;45302;-76
2023/08/27 04:34:33;;;;;;;;;6.33;5.00;;;;;;;;5101397;27;45395;-76
2023/08/27 04:37:00;;;;;;;;;4.33;4.33;;;;;;;;5082680;27;46411;-76
2023/08/27 04:39:26;;;;;;;;;5.50;5.50;;;;;;;;5101144;27;46058;-76
2023/08/27 04:41:51;;;;;;;;;4.33;4.00;;;;;;;;5101046;27;45199;-76
2023/08/27 04:44:17;;;;;;;;;3.67;3.00;;;;;;;;5101325;27;45501;-75
2023/08/27 04:46:42;;;;;;;;;5.33;5.33;;;;;;;;5100919;27;45203;-76
2023/08/27 04:49:08;;;;;;;;;4.00;4.00;;;;;;;;5082714;27;47436;-75
2023/08/27 04:51:33;;;;;;;;;4.00;4.00;;;;;;;;5082263;27;45682;-76
2023/08/27 04:53:58;;;;;;;;;3.67;3.67;;;;;;;;5082710;27;45306;-75
2023/08/27 04:56:23;;;;;;;;;4.00;4.00;;;;;;;;5101046;27;45226;-76
2023/08/27 04:58:48;;;;;;;;;2.33;1.67;;;;;;;;5100784;27;45326;-76
2023/08/27 05:01:14;;;;;;;;;3.33;3.33;;;;;;;;5082262;27;46213;-76
2023/08/27 05:03:39;;;;;;;;;4.00;4.00;;;;;;;;5101039;27;45345;-76
2023/08/27 05:06:04;;;;;;;;;6.00;5.67;;;;;;;;5082245;27;45885;-76
2023/08/27 05:08:29;;;;;;;;;3.00;3.00;;;;;;;;5100785;27;45313;-76
2023/08/27 05:10:54;;;;;;;;;4.33;4.33;;;;;;;;5100734;27;45359;-75
2023/08/27 05:13:20;;;;;;;;;3.67;3.67;;;;;;;;5100920;27;45228;-76
2023/08/27 05:15:45;;;;;;;;;4.67;4.67;;;;;;;;5100579;27;45343;-76
2023/08/27 05:18:10;;;;;;;;;4.00;4.00;;;;;;;;5100270;27;45464;-76
2023/08/27 05:20:36;;;;;;;;;4.33;4.00;;;;;;;;5100502;27;45323;-76
2023/08/27 05:23:01;;;;;;;;;5.00;5.00;;;;;;;;5082265;27;45434;-76
2023/08/27 05:25:27;;;;;;;;;6.00;6.00;;;;;;;;5100481;27;45419;-76
2023/08/27 05:27:52;;;;;;;;;4.00;4.00;;;;;;;;5081994;27;48049;-76
2023/08/27 05:30:17;;;;;;;;;2.33;2.33;;;;;;;;5082918;27;45438;-76
2023/08/27 05:32:43;;;;;;;;;5.00;3.00;;;;;;;;5061853;28;45415;-76
2023/08/27 05:35:08;;;;;;;;;4.00;4.00;;;;;;;;5079802;28;45623;-76
2023/08/27 05:37:33;;;;;;;;;3.33;3.00;;;;;;;;5061475;28;47022;-76
2023/08/27 05:39:58;;;;;;;;;3.33;3.33;;;;;;;;5079671;28;45299;-76
2023/08/27 05:42:24;;;;;;;;;4.67;4.67;;;;;;;;5079980;28;45284;-76
2023/08/27 05:44:49;;;;;;;;;4.00;4.00;;;;;;;;5061588;28;45928;-76
2023/08/27 05:47:16;;;;;;;;;4.00;4.00;;;;;;;;5079425;28;45225;-76
2023/08/27 05:49:42;;;;;;;;;5.00;5.00;;;;;;;;5061650;28;45602;-76
2023/08/27 05:52:07;;;;;;;;;4.00;4.00;;;;;;;;5079774;28;45201;-76
2023/08/27 05:54:32;;;;;;;;;5.00;5.00;;;;;;;;5079393;28;45612;-76
2023/08/27 05:56:57;;;;;;;;;4.67;4.67;;;;;;;;5079712;28;45268;-76
2023/08/27 05:59:23;;;;;;;;;4.33;4.33;;;;;;;;5061520;28;45252;-76
2023/08/27 06:01:48;;;;;;;;;5.67;4.67;;;;;;;;5079545;28;45425;-77
2023/08/27 06:04:14;;;;;;;;;5.00;4.00;;;;;;;;5058262;28;45533;-77
2023/08/27 06:06:40;;;;;;;;;5.00;5.00;;;;;;;;5067908;28;45507;-77
2023/08/27 06:09:05;;;;;;;;;6.33;5.33;;;;;;;;5049540;28;45527;-78
2023/08/27 06:11:30;;;;;;;;;5.00;4.33;;;;;;;;5059409;28;45497;-77
2023/08/27 06:13:56;;;;;;;;;6.00;6.00;;;;;;;;5059180;28;45408;-77
2023/08/27 06:16:21;;;;;;;;;5.33;5.33;;;;;;;;5041292;28;47362;-78
2023/08/27 06:18:46;;;;;;;;;6.67;5.67;;;;;;;;5041009;28;45253;-78
2023/08/27 06:21:11;;;;;;;;;6.00;5.33;;;;;;;;5059862;28;45521;-76
2023/08/27 06:23:37;;;;;;;;;8.33;8.33;;;;;;;;5064393;28;45403;-77
2023/08/27 06:26:03;;;;;;;;;10.67;9.00;;;;;;;;5065116;28;45358;-78
2023/08/27 06:28:29;;;;;;;;;7.67;7.67;;;;;;;;5068922;27;45311;-76
2023/08/27 06:30:54;;;;;;;;;3.67;3.00;;;;;;;;5091760;27;45189;-75
2023/08/27 06:33:19;;;;;;;;;8.00;6.67;;;;;;;;5110370;27;45223;-78
2023/08/27 06:35:44;;;;;;;;;5.33;5.33;;;;;;;;5109915;27;45247;-76
2023/08/27 06:38:10;;;;;;;;;6.00;6.00;;;;;;;;5083720;27;46132;-77
2023/08/27 06:40:35;;;;;;;;;6.00;5.00;;;;;;;;5101889;27;45211;-77
2023/08/27 06:43:00;;;;;;;;;7.00;6.00;;;;;;;;5100077;27;45529;-77
2023/08/27 06:45:27;;;;;;;;;4.00;4.00;;;;;;;;5102347;27;45187;-76
2023/08/27 06:47:53;;;;;;;;;4.33;4.33;;;;;;;;5091181;27;45143;-76
2023/08/27 06:50:18;;;;;;;;;3.00;3.00;;;;;;;;5079188;28;45291;-77
2023/08/27 06:52:44;;;;;;;;;5.00;5.00;;;;;;;;5081787;28;45213;-76
2023/08/27 06:55:10;;;;;;;;;2.00;2.00;;;;;;;;5063772;28;48027;-76
2023/08/27 06:57:35;;;;;;;;;3.00;3.00;;;;;;;;5064056;28;45382;-76
2023/08/27 07:00:01;;;;;;;;;6.33;6.00;;;;;;;;5063870;28;45533;-77
2023/08/27 07:02:27;;;;;;;;;5.00;5.00;;;;;;;;5082275;28;45374;-76
2023/08/27 07:04:52;;;;;;;;;6.00;5.00;;;;;;;;5072021;28;45381;-76
2023/08/27 07:07:18;;;;;;;;;2.67;2.67;;;;;;;;5061596;28;45336;-75
2023/08/27 07:09:43;;;;;;;;;3.00;3.00;;;;;;;;5043948;28;45459;-76
2023/08/27 07:12:08;;;;;;;;;4.67;3.00;;;;;;;;5043670;28;47060;-76
2023/08/27 07:14:33;;;;;;;;;5.00;3.00;;;;;;;;5061874;28;46214;-76
2023/08/27 07:16:58;;;;;;;;;9.00;6.33;;;;;;;;5043590;28;45310;-76
2023/08/27 07:19:24;;;;;;;;;4.33;4.33;;;;;;;;5043601;28;45345;-76
2023/08/27 07:21:49;;;;;;;;;4.00;4.00;;;;;;;;5061651;28;45406;-76
2023/08/27 07:24:14;;;;;;;;;4.33;4.00;;;;;;;;5061784;28;45750;-77
2023/08/27 07:26:40;;;;;;;;;1.33;1.33;;;;;;;;5061586;28;45131;-78
2023/08/27 07:29:05;;;;;;;;;2.00;2.00;;;;;;;;5056839;27;45285;-76
2023/08/27 07:31:31;;;;;;;;;4.00;3.00;;;;;;;;5102076;27;45666;-76
2023/08/27 07:33:56;;;;;;;;;3.00;3.00;;;;;;;;5102266;27;45307;-76
2023/08/27 07:36:21;;;;;;;;;1.00;1.00;;;;;;;;5083716;27;45248;-77
2023/08/27 07:38:47;;;;;;;;;2.00;2.00;;;;;;;;5083842;27;45339;-76
2023/08/27 07:41:13;;;;;;;;;2.00;2.00;;;;;;;;5083669;27;46233;-75
2023/08/27 07:43:39;;;;;;;;;1.67;1.00;;;;;;;;5104564;27;45336;-75
2023/08/27 07:46:05;;;;;;;;;2.67;2.00;;;;;;;;5110623;27;45314;-78
2023/08/27 07:48:31;;;;;;;;;4.67;4.33;;;;;;;;5111286;27;45487;-77
2023/08/27 07:50:57;;;;;;;;;3.67;2.00;;;;;;;;5109395;27;45371;-76
2023/08/27 07:53:22;;;;;;;;;1.00;1.00;;;;;;;;5107833;27;45375;-75
2023/08/27 07:55:48;;;;;;;;;2.67;2.00;;;;;;;;5092924;27;45358;-76
2023/08/27 07:58:13;;;;;;;;;2.00;1.00;;;;;;;;5109440;27;45381;-74
2023/08/27 08:00:38;;;;;;;;;2.00;2.00;;;;;;;;5092531;27;45323;-75
2023/08/27 08:03:04;;;;;;;;;1.33;1.00;;;;;;;;5090375;28;46314;-76
2023/08/27 08:05:29;;;;;;;;;2.00;2.00;;;;;;;;5096898;28;45323;-75
2023/08/27 08:07:54;;;;;;;;;4.00;3.00;;;;;;;;5097189;28;45210;-75
2023/08/27 08:10:20;;;;;;;;;2.00;2.00;;;;;;;;5095737;28;45150;-74
2023/08/27 08:12:46;;;;;;;;;2.00;2.00;;;;;;;;5095800;28;45103;-75
2023/08/27 08:15:11;;;;;;;;;2.33;1.33;;;;;;;;5097798;28;44682;-74
2023/08/27 08:17:36;;;;;;;;;2.00;2.00;;;;;;;;5093282;28;44732;-77
2023/08/27 08:20:02;;;;;;;;;4.00;3.00;;;;;;;;5091349;28;45121;-78
2023/08/27 08:22:27;;;;;;;;;2.67;2.00;;;;;;;;5089121;28;45271;-76
2023/08/27 08:24:53;;;;;;;;;3.00;3.00;;;;;;;;5091673;28;45196;-77
2023/08/27 08:27:18;;;;;;;;;1.00;1.00;;;;;;;;5095459;28;45213;-77
2023/08/27 08:29:43;;;;;;;;;2.00;2.00;;;;;;;;5084467;27;46067;-79
2023/08/27 08:32:08;;;;;;;;;2.00;2.00;;;;;;;;5102397;27;45183;-78
2023/08/27 08:34:34;;;;;;;;;5.33;3.67;;;;;;;;5102847;27;45226;-78
2023/08/27 08:37:00;;;;;;;;;2.67;2.67;;;;;;;;5103773;27;45285;-78
2023/08/27 08:39:25;;;;;;;;;2.00;1.67;;;;;;;;5101739;27;45362;-78
2023/08/27 08:41:54;;;;;;;;;2.00;1.33;;;;;;;;5101067;27;46071;-78
2023/08/27 08:44:35;;;;;;;;;3.33;2.00;;;;;;;;5101675;27;45363;-78
2023/08/27 08:47:01;;;;;;;;;2.00;2.00;;;;;;;;5082841;27;45410;-77
2023/08/27 08:49:30;;;;;;;;;2.00;1.33;;;;;;;;5082891;27;45971;-79
2023/08/27 08:51:59;;;;;;;;;2.50;1.25;;;;;;;;5082576;27;47123;-76
2023/08/27 08:54:25;;;;;;;;;2.00;2.00;;;;;;;;5101053;27;45480;-75
2023/08/27 08:56:53;;;;;;;;;1.00;1.00;;;;;;;;5101059;27;45301;-77
2023/08/27 08:59:18;;;;;;;;;2.00;1.75;;;;;;;;5100975;27;45477;-75
2023/08/27 09:01:44;;;;;;;;;2.00;2.00;;;;;;;;5082235;27;47029;-73
2023/08/27 09:04:10;;;;;;;;;0.75;0.75;;;;;;;;5100979;27;45296;-75
2023/08/27 09:06:37;;;;;;;;;1.00;1.00;;;;;;;;5057425;28;45600;-73
2023/08/27 09:09:02;;;;;;;;;2.00;2.00;;;;;;;;5041672;28;45928;-74
2023/08/27 09:11:29;;;;;;;;;3.33;1.67;;;;;;;;5059968;28;45449;-74
2023/08/27 09:13:56;;;;;;;;;2.25;1.75;;;;;;;;5059508;28;45332;-75
2023/08/27 09:16:22;;;;;;;;;0.75;0.75;;;;;;;;5059940;28;45325;-75
2023/08/27 09:18:47;;;;;;;;;2.00;2.00;;;;;;;;5059954;28;45411;-75
2023/08/27 09:21:12;;;;;;;;;1.00;1.00;;;;;;;;5041626;28;47271;-75
2023/08/27 09:23:37;;;;;;;;;3.50;2.00;;;;;;;;5041583;28;45316;-75
2023/08/27 09:26:06;;;;;;;;;2.33;1.00;;;;;;;;5059922;28;45553;-75
2023/08/27 09:28:33;;;;;;;;;1.00;1.00;;;;;;;;5045791;27;46218;-74
2023/08/27 09:30:59;;;;;;;;;0.50;0.00;;;;;;;;5082335;27;47918;-75
2023/08/27 09:33:34;;;;;;;;;2.00;2.00;;;;;;;;5100381;27;45444;-76
2023/08/27 09:35:59;;;;;;;;;2.00;2.00;;;;;;;;5100450;27;45327;-76
2023/08/27 09:38:26;;;;;;;;;0.25;0.25;;;;;;;;5100266;27;45361;-76
2023/08/27 09:40:52;;;;;;;;;1.00;1.00;;;;;;;;5081854;27;48465;-77
2023/08/27 09:43:18;;;;;;;;;1.00;1.00;;;;;;;;5087705;27;45287;-76
2023/08/27 09:45:43;;;;;;;;;1.00;1.00;;;;;;;;5064897;28;46516;-78
2023/08/27 09:48:08;;;;;;;;;0.00;0.00;;;;;;;;5065141;28;45411;-76
2023/08/27 09:50:33;;;;;;;;;1.00;1.00;;;;;;;;5073760;28;45874;-78
2023/08/27 09:53:10;;;;;;;;;1.25;1.00;;;;;;;;5064215;28;45335;-77
2023/08/27 09:55:36;;;;;;;;;2.00;1.00;;;;;;;;5041306;28;45265;-79
2023/08/27 09:58:01;;;;;;;;;1.00;1.00;;;;;;;;5041183;28;46628;-76
2023/08/27 10:00:29;;;;;;;;;1.00;1.00;;;;;;;;5059175;28;45328;-77
2023/08/27 10:02:54;;;;;;;;;0.50;0.50;;;;;;;;5059321;28;45418;-77
2023/08/27 10:05:28;;;;;;;;;0.33;0.33;;;;;;;;5059633;28;45555;-78
2023/08/27 10:08:04;;;;;;;;;0.75;0.75;;;;;;;;5059285;28;45483;-78
2023/08/27 10:10:31;;;;;;;;;0.00;0.00;;;;;;;;5059216;28;46331;-76
2023/08/27 10:12:58;;;;;;;;;1.25;1.25;;;;;;;;5041034;28;45417;-78
2023/08/27 10:15:24;;;;;;;;;1.33;1.00;;;;;;;;5059154;28;45359;-76
2023/08/27 10:17:50;;;;;;;;;2.00;2.00;;;;;;;;5059087;28;45320;-77
2023/08/27 10:20:16;;;;;;;;;2.00;2.00;;;;;;;;5058349;28;46201;-77
2023/08/27 10:22:42;;;;;;;;;0.00;0.00;;;;;;;;5040999;28;45328;-75
2023/08/27 10:25:07;;;;;;;;;2.00;2.00;;;;;;;;5059240;28;45285;-77
2023/08/27 10:27:33;;;;;;;;;1.00;1.00;;;;;;;;5048317;28;46398;-77
2023/08/27 10:29:58;;;;;;;;;2.50;0.75;;;;;;;;5074389;27;45416;-78
2023/08/27 10:32:23;;;;;;;;;1.25;1.25;;;;;;;;5049480;28;45836;-79
2023/08/27 10:34:49;;;;;;;;;0.00;0.00;;;;;;;;5083005;28;45326;-77
2023/08/27 10:37:15;;;;;;;;;3.25;2.00;;;;;;;;5082626;28;45252;-78
2023/08/27 10:39:41;;;;;;;;;1.25;1.25;;;;;;;;5064356;28;48326;-77
2023/08/27 10:42:06;;;;;;;;;3.25;2.00;;;;;;;;5082520;28;45393;-78
2023/08/27 10:44:32;;;;;;;;;1.75;1.75;;;;;;;;5082859;28;45326;-76
2023/08/27 10:47:11;;;;;;;;;2.00;2.00;;;;;;;;5082272;28;45381;-78
2023/08/27 10:49:37;;;;;;;;;2.00;2.00;;;;;;;;5082530;28;45377;-77
2023/08/27 10:52:31;;;;;;;;;3.75;0.25;;;;;;;;5064091;28;45677;-76
2023/08/27 10:55:00;;;;;;;;;3.25;2.50;;;;;;;;5053829;28;45310;-77
2023/08/27 10:57:25;;;;;;;;;2.00;2.00;;;;;;;;5070916;28;45528;-77
2023/08/27 10:59:53;;;;;;;;;2.00;2.00;;;;;;;;5068286;28;45378;-76
2023/08/27 11:02:19;;;;;;;;;2.00;2.00;;;;;;;;5082346;28;45261;-78
2023/08/27 11:04:50;;;;;;;;;1.50;1.25;;;;;;;;5082610;28;45327;-75
2023/08/27 11:07:17;;;;;;;;;2.50;2.50;;;;;;;;5082034;28;45397;-75
2023/08/27 11:09:48;;;;;;;;;1.00;1.00;;;;;;;;5082121;28;45343;-75
2023/08/27 11:12:26;;;;;;;;;2.00;1.00;;;;;;;;5082120;28;45261;-75
2023/08/27 11:14:52;;;;;;;;;1.50;1.25;;;;;;;;5063857;28;45407;-75
2023/08/27 11:17:27;;;;;;;;;2.25;1.25;;;;;;;;5081978;28;45392;-75
2023/08/27 11:19:53;;;;;;;;;3.50;3.00;;;;;;;;5082048;28;45310;-77
2023/08/27 11:22:19;;;;;;;;;1.75;1.75;;;;;;;;5081934;28;45661;-77
2023/08/27 11:24:48;;;;;;;;;2.50;2.50;;;;;;;;5082220;28;45173;-76
2023/08/27 11:27:15;;;;;;;;;1.00;1.00;;;;;;;;5081822;28;45465;-75
2023/08/27 11:29:41;;;;;;;;;2.00;0.50;;;;;;;;5093368;27;46315;-75
2023/08/27 11:32:07;;;;;;;;;1.25;1.25;;;;;;;;5101683;27;45362;-76
2023/08/27 11:34:35;;;;;;;;;1.50;1.50;;;;;;;;5078769;28;45975;-76
2023/08/27 11:37:00;;;;;;;;;1.00;1.00;;;;;;;;5081460;28;45255;-75
2023/08/27 11:39:25;;;;;;;;;1.00;1.00;;;;;;;;5081918;28;45622;-75
2023/08/27 11:41:50;;;;;;;;;1.75;1.75;;;;;;;;5063398;28;45283;-75
2023/08/27 11:44:16;;;;;;;;;2.00;2.00;;;;;;;;5063797;28;45950;-75
2023/08/27 11:46:42;;;;;;;;;0.50;0.50;;;;;;;;5081532;28;45228;-75
2023/08/27 11:49:08;;;;;;;;;2.50;0.75;;;;;;;;5081681;28;45366;-75
2023/08/27 11:51:34;;;;;;;;;1.50;1.50;;;;;;;;5081809;28;45234;-74
2023/08/27 11:53:59;;;;;;;;;1.00;1.00;;;;;;;;5081707;28;45280;-74
2023/08/27 11:56:26;;;;;;;;;0.00;0.00;;;;;;;;5081719;28;45236;-74
2023/08/27 11:58:54;;;;;;;;;0.50;0.50;;;;;;;;5081453;28;45927;-75
2023/08/27 12:01:20;;;;;;;;;0.00;0.00;;;;;;;;5081494;28;45338;-75
2023/08/27 12:03:46;;;;;;;;;0.00;0.00;;;;;;;;5064361;28;45321;-76
2023/08/27 12:06:16;;;;;;;;;1.50;1.00;;;;;;;;5060829;28;45315;-75
2023/08/27 12:08:41;;;;;;;;;0.75;0.75;;;;;;;;5060824;28;45481;-75
2023/08/27 12:11:06;;;;;;;;;0.00;0.00;;;;;;;;5060940;28;45465;-74
2023/08/27 12:13:31;;;;;;;;;0.00;0.00;;;;;;;;5061190;28;45299;-76
2023/08/27 12:15:57;;;;;;;;;1.25;1.25;;;;;;;;5061345;28;45284;-75
2023/08/27 12:18:22;;;;;;;;;1.00;0.50;;;;;;;;5060779;28;46180;-75
2023/08/27 12:20:48;;;;;;;;;1.75;1.75;;;;;;;;5060861;28;45332;-75
2023/08/27 12:23:14;;;;;;;;;3.25;3.25;;;;;;;;5061391;28;45261;-75
2023/08/27 12:25:45;;;;;;;;;1.00;1.00;;;;;;;;5043230;28;46447;-75
2023/08/27 12:28:11;;;;;;;;;3.75;1.50;;;;;;;;5060821;28;45351;-75
2023/08/27 12:30:36;;;;;;;;;1.00;1.00;;;;;;;;5081367;27;45536;-75
2023/08/27 12:33:01;;;;;;;;;1.00;1.00;;;;;;;;5101550;27;45350;-76
2023/08/27 12:35:29;;;;;;;;;1.00;1.00;;;;;;;;5101227;27;45346;-75
2023/08/27 12:37:55;;;;;;;;;0.00;0.00;;;;;;;;5101217;27;45966;-75
2023/08/27 12:40:20;;;;;;;;;0.00;0.00;;;;;;;;5101472;27;45236;-74
2023/08/27 12:42:45;;;;;;;;;0.00;0.00;;;;;;;;5082956;27;45343;-74
2023/08/27 12:45:10;;;;;;;;;0.00;0.00;;;;;;;;5100989;27;45309;-74
2023/08/27 12:47:36;;;;;;;;;0.75;0.75;;;;;;;;5101189;27;45816;-75
2023/08/27 12:50:02;;;;;;;;;1.00;1.00;;;;;;;;5100752;27;45310;-75
2023/08/27 12:52:28;;;;;;;;;1.25;1.25;;;;;;;;5101225;27;45296;-74
2023/08/27 12:54:53;;;;;;;;;1.00;1.00;;;;;;;;5100846;27;45256;-75
2023/08/27 12:57:18;;;;;;;;;2.25;0.00;;;;;;;;5101038;27;46041;-74
2023/08/27 12:59:43;;;;;;;;;3.00;2.00;;;;;;;;5100749;27;45349;-74
2023/08/27 13:02:09;;;;;;;;;2.00;2.00;;;;;;;;5101102;27;45199;-74
2023/08/27 13:04:34;;;;;;;;;1.00;1.00;;;;;;;;5100852;27;45477;-75
2023/08/27 13:06:59;;;;;;;;;0.00;0.00;;;;;;;;5082232;27;47402;-74
2023/08/27 13:09:25;;;;;;;;;1.00;1.00;;;;;;;;5100875;27;45382;-75
2023/08/27 13:11:50;;;;;;;;;0.00;0.00;;;;;;;;5084059;27;45367;-74
2023/08/27 13:14:16;;;;;;;;;0.00;0.00;;;;;;;;5059833;28;45621;-75
2023/08/27 13:16:42;;;;;;;;;1.00;1.00;;;;;;;;5059940;28;45469;-74
2023/08/27 13:19:08;;;;;;;;;1.25;1.25;;;;;;;;5041885;28;45297;-74
2023/08/27 13:21:33;;;;;;;;;2.75;1.00;;;;;;;;5059875;28;45330;-75
2023/08/27 13:23:59;;;;;;;;;0.75;0.75;;;;;;;;5060596;28;45525;-76
2023/08/27 13:26:24;;;;;;;;;1.25;1.25;;;;;;;;5073344;28;45362;-75
2023/08/27 13:28:49;;;;;;;;;1.00;1.00;;;;;;;;5084565;27;45446;-75
2023/08/27 13:31:15;;;;;;;;;1.00;1.00;;;;;;;;5100462;27;45343;-75
2023/08/27 13:33:40;;;;;;;;;2.75;2.75;;;;;;;;5100446;27;45342;-74
2023/08/27 13:36:05;;;;;;;;;1.50;1.50;;;;;;;;5071156;27;45393;-75
2023/08/27 13:38:30;;;;;;;;;1.00;1.00;;;;;;;;5060342;28;45313;-76
2023/08/27 13:40:56;;;;;;;;;1.00;1.00;;;;;;;;5067494;28;45309;-75
2023/08/27 13:43:21;;;;;;;;;0.25;0.25;;;;;;;;5079975;28;45238;-77
2023/08/27 13:45:46;;;;;;;;;1.00;1.00;;;;;;;;5079648;28;46540;-75
2023/08/27 13:48:11;;;;;;;;;3.25;2.00;;;;;;;;5079838;28;45381;-78
2023/08/27 13:50:37;;;;;;;;;1.00;1.00;;;;;;;;5073238;28;45399;-76
2023/08/27 13:53:02;;;;;;;;;1.00;1.00;;;;;;;;5059455;28;45301;-75
2023/08/27 13:55:28;;;;;;;;;2.00;2.00;;;;;;;;5066738;28;46170;-75
2023/08/27 13:57:53;;;;;;;;;1.00;1.00;;;;;;;;5061250;28;45374;-75
2023/08/27 14:00:18;;;;;;;;;0.50;0.50;;;;;;;;5079968;28;45643;-76
2023/08/27 14:02:43;;;;;;;;;2.00;1.75;;;;;;;;5063004;28;46061;-75
2023/08/27 14:05:09;;;;;;;;;3.00;2.00;;;;;;;;5074924;28;45439;-75
2023/08/27 14:07:34;;;;;;;;;0.50;0.50;;;;;;;;5068853;28;45226;-77
2023/08/27 14:10:00;;;;;;;;;0.25;0.25;;;;;;;;5059566;28;45245;-76
2023/08/27 14:12:25;;;;;;;;;1.50;1.50;;;;;;;;5064429;28;46287;-75
2023/08/27 14:14:51;;;;;;;;;3.00;3.00;;;;;;;;5082242;28;45326;-75
2023/08/27 14:17:19;;;;;;;;;1.00;1.00;;;;;;;;5069772;28;45488;-76
2023/08/27 14:19:45;;;;;;;;;0.75;0.75;;;;;;;;5082547;28;45331;-76
2023/08/27 14:22:10;;;;;;;;;1.00;1.00;;;;;;;;5052945;28;46157;-76
2023/08/27 14:24:35;;;;;;;;;0.50;0.50;;;;;;;;5065791;28;45203;-75
2023/08/27 14:27:01;;;;;;;;;1.00;0.00;;;;;;;;5075553;28;45457;-74
2023/08/27 14:29:26;;;;;;;;;0.00;0.00;;;;;;;;5083673;27;45426;-75
2023/08/27 14:31:51;;;;;;;;;1.00;0.00;;;;;;;;5065807;28;46983;-74
2023/08/27 14:34:16;;;;;;;;;1.00;1.00;;;;;;;;5082576;28;46387;-74
2023/08/27 14:36:41;;;;;;;;;1.00;1.00;;;;;;;;5079739;28;45237;-75